createdAt,value
2023-05-09T00:01:05.265Z,61.00
2023-05-09T00:03:36.339Z,61.00
2023-05-09T00:06:07.163Z,61.00
2023-05-09T00:08:35.134Z,61.00
2023-05-09T00:11:04.595Z,61.10
2023-05-09T00:13:32.522Z,61.10
2023-05-09T00:16:03.859Z,61.10
2023-05-09T00:18:31.780Z,61.20
2023-05-09T00:21:00.100Z,61.30
2023-05-09T00:23:27.922Z,61.30
2023-05-09T00:25:56.478Z,61.30
2023-05-09T00:28:24.212Z,61.40
2023-05-09T00:30:52.809Z,61.50
2023-05-09T00:33:21.356Z,61.60
2023-05-09T00:35:50.149Z,61.50
2023-05-09T00:38:17.983Z,61.40
2023-05-09T00:40:46.778Z,61.40
2023-05-09T00:43:14.488Z,61.50
2023-05-09T00:45:45.910Z,61.60
2023-05-09T00:48:15.709Z,61.70
2023-05-09T00:50:44.333Z,61.80
2023-05-09T00:53:13.852Z,62.00
2023-05-09T00:55:43.443Z,62.10
2023-05-09T00:58:11.980Z,62.30
2023-05-09T01:00:40.370Z,62.50
2023-05-09T01:03:08.813Z,62.60
2023-05-09T01:06:04.052Z,62.80
2023-05-09T01:08:38.082Z,63.00
2023-05-09T01:11:31.777Z,63.00
2023-05-09T01:14:23.502Z,63.20
2023-05-09T01:17:04.349Z,63.10
2023-05-09T01:19:51.599Z,63.10
2023-05-09T01:22:24.105Z,63.20
2023-05-09T01:25:13.653Z,63.20
2023-05-09T01:27:47.688Z,63.30
2023-05-09T01:30:18.030Z,63.20
2023-05-09T01:32:50.695Z,63.10
2023-05-09T01:35:25.424Z,63.40
2023-05-09T01:40:26.318Z,63.90
2023-05-09T01:43:23.146Z,64.00
2023-05-09T01:45:53.300Z,64.40
2023-05-09T01:48:22.403Z,64.20
2023-05-09T01:50:50.210Z,64.30
2023-05-09T01:53:19.178Z,64.30
2023-05-09T01:55:48.840Z,64.40
2023-05-09T01:58:18.751Z,64.50
2023-05-09T02:00:48.792Z,64.60
2023-05-09T02:03:18.231Z,64.60
2023-05-09T02:05:47.896Z,64.70
2023-05-09T02:08:18.186Z,64.80
2023-05-09T02:10:48.307Z,64.80
2023-05-09T02:13:17.056Z,65.00
2023-05-09T02:15:46.269Z,65.00
2023-05-09T02:18:14.447Z,65.10
2023-05-09T02:20:42.268Z,65.10
2023-05-09T02:23:10.451Z,65.20
2023-05-09T02:25:40.347Z,65.00
2023-05-09T02:28:10.461Z,65.00
2023-05-09T02:30:43.219Z,65.10
2023-05-09T02:33:13.080Z,65.10
2023-05-09T02:35:44.361Z,65.00
2023-05-09T02:38:14.670Z,65.10
2023-05-09T02:40:44.868Z,65.30
2023-05-09T02:43:16.164Z,65.30
2023-05-09T02:45:44.216Z,65.60
2023-05-09T02:48:12.658Z,65.40
2023-05-09T02:50:43.154Z,65.40
2023-05-09T02:53:11.325Z,65.20
2023-05-09T02:55:42.394Z,65.20
2023-05-09T02:58:14.629Z,65.20
2023-05-09T03:00:43.968Z,65.20
2023-05-09T03:03:14.474Z,65.20
2023-05-09T03:05:42.598Z,65.30
2023-05-09T03:08:11.367Z,65.30
2023-05-09T03:10:39.097Z,65.20
2023-05-09T03:13:09.319Z,65.20
2023-05-09T03:15:37.204Z,65.40
2023-05-09T03:18:06.521Z,65.60
2023-05-09T03:20:34.344Z,65.70
2023-05-09T03:23:03.146Z,65.60
2023-05-09T03:25:31.108Z,65.60
2023-05-09T03:27:59.300Z,65.70
2023-05-09T03:30:27.955Z,65.70
2023-05-09T03:32:57.304Z,65.90
2023-05-09T03:35:25.133Z,66.10
2023-05-09T03:37:55.305Z,66.20
2023-05-09T03:40:23.398Z,66.60
2023-05-09T03:42:59.383Z,66.60
2023-05-09T03:45:27.536Z,66.40
2023-05-09T03:47:56.160Z,66.60
2023-05-09T03:50:25.892Z,66.60
2023-05-09T03:52:57.337Z,66.70
2023-05-09T03:55:25.174Z,66.60
2023-05-09T03:57:53.592Z,66.60
2023-05-09T04:00:22.339Z,66.60
2023-05-09T04:03:02.639Z,66.50
2023-05-09T04:05:37.545Z,66.50
2023-05-09T04:08:07.810Z,66.50
2023-05-09T04:10:35.571Z,66.50
2023-05-09T04:13:05.336Z,66.50
2023-05-09T04:15:33.151Z,66.60
2023-05-09T04:18:01.335Z,66.50
2023-05-09T04:20:29.334Z,66.50
2023-05-09T04:22:59.272Z,66.40
2023-05-09T04:25:27.379Z,66.30
2023-05-09T04:27:56.287Z,66.10
2023-05-09T04:30:27.376Z,66.00
2023-05-09T04:32:56.618Z,66.00
2023-05-09T04:35:24.638Z,65.70
2023-05-09T04:37:54.669Z,65.70
2023-05-09T04:40:25.445Z,65.70
2023-05-09T04:42:59.264Z,65.80
2023-05-09T04:45:30.547Z,65.80
2023-05-09T04:48:00.069Z,66.00
2023-05-09T04:50:28.249Z,65.80
2023-05-09T04:52:57.523Z,65.60
2023-05-09T04:55:25.421Z,65.70
2023-05-09T04:57:56.449Z,65.50
2023-05-09T05:00:24.613Z,65.30
2023-05-09T05:02:53.079Z,65.00
2023-05-09T05:05:25.521Z,65.00
2023-05-09T05:07:55.301Z,64.40
2023-05-09T05:10:27.696Z,64.60
2023-05-09T05:13:03.937Z,64.10
2023-05-09T05:15:31.813Z,63.70
2023-05-09T05:18:00.416Z,63.30
2023-05-09T05:20:36.235Z,62.80
2023-05-09T05:23:05.067Z,61.60
2023-05-09T05:25:33.827Z,61.40
2023-05-09T05:28:03.520Z,61.90
2023-05-09T05:30:33.972Z,61.70
2023-05-09T05:33:04.188Z,60.00
2023-05-09T05:35:32.268Z,59.20
2023-05-09T05:38:02.385Z,58.30
2023-05-09T05:40:30.310Z,58.10
2023-05-09T05:43:02.049Z,58.10
2023-05-09T05:45:32.050Z,56.90
2023-05-09T05:48:03.030Z,55.80
2023-05-09T05:50:32.497Z,55.60
2023-05-09T05:53:01.315Z,55.00
2023-05-09T05:55:30.699Z,54.70
2023-05-09T05:58:00.578Z,53.70
2023-05-09T06:00:28.977Z,55.00
2023-05-09T06:03:05.159Z,54.90
2023-05-09T06:05:48.487Z,55.00
2023-05-09T06:08:17.300Z,55.10
2023-05-09T06:10:45.076Z,55.10
2023-05-09T06:13:14.353Z,55.10
2023-05-09T06:15:46.629Z,55.30
2023-05-09T06:18:14.963Z,55.20
2023-05-09T06:20:42.738Z,54.80
2023-05-09T06:23:11.112Z,54.60
2023-05-09T06:25:38.896Z,54.40
2023-05-09T06:28:08.115Z,54.00
2023-05-09T06:30:37.399Z,54.40
2023-05-09T06:33:05.819Z,54.60
2023-05-09T06:35:33.553Z,53.80
2023-05-09T06:38:01.682Z,53.40
2023-05-09T06:40:30.054Z,53.40
2023-05-09T06:42:58.378Z,52.90
2023-05-09T06:45:27.719Z,52.40
2023-05-09T06:47:56.137Z,52.20
2023-05-09T06:50:24.020Z,52.70
2023-05-09T06:52:52.445Z,53.00
2023-05-09T06:55:22.374Z,52.70
2023-05-09T06:57:50.926Z,52.10
2023-05-09T07:00:19.157Z,52.50
2023-05-09T07:02:47.355Z,52.20
2023-05-09T07:05:16.755Z,48.60
2023-05-09T07:07:45.312Z,49.10
2023-05-09T07:10:13.404Z,49.60
2023-05-09T07:12:43.038Z,50.00
2023-05-09T07:15:11.476Z,49.50
2023-05-09T07:17:40.964Z,49.70
2023-05-09T07:20:09.474Z,49.80
2023-05-09T07:22:38.981Z,48.00
2023-05-09T07:25:09.071Z,47.60
2023-05-09T07:27:37.982Z,47.70
2023-05-09T07:30:07.122Z,48.10
2023-05-09T07:32:36.326Z,48.20
2023-05-09T07:35:04.552Z,48.20
2023-05-09T07:37:32.981Z,47.90
2023-05-09T07:40:01.264Z,48.10
2023-05-09T07:42:30.740Z,47.60
2023-05-09T07:45:00.033Z,47.30
2023-05-09T07:47:28.266Z,46.70
2023-05-09T07:49:56.235Z,45.70
2023-05-09T07:52:24.614Z,45.00
2023-05-09T07:54:52.411Z,45.50
2023-05-09T07:57:20.789Z,45.20
2023-05-09T07:59:48.657Z,44.90
2023-05-09T08:02:17.186Z,45.50
2023-05-09T08:04:49.272Z,45.70
2023-05-09T08:07:19.027Z,45.10
2023-05-09T08:09:47.565Z,44.80
2023-05-09T08:12:15.890Z,43.90
2023-05-09T08:14:44.175Z,43.20
2023-05-09T08:17:12.605Z,43.30
2023-05-09T08:19:42.042Z,43.60
2023-05-09T08:22:16.330Z,43.30
2023-05-09T08:24:45.402Z,43.00
2023-05-09T08:27:15.222Z,42.90
2023-05-09T08:29:43.892Z,42.00
2023-05-09T08:32:11.993Z,42.70
2023-05-09T08:34:39.796Z,42.80
2023-05-09T08:37:08.203Z,41.90
2023-05-09T08:39:36.447Z,42.10
2023-05-09T08:42:04.841Z,40.80
2023-05-09T08:44:32.637Z,40.90
2023-05-09T08:47:03.966Z,40.80
2023-05-09T08:49:32.132Z,40.30
2023-05-09T08:52:00.638Z,40.50
2023-05-09T08:54:30.365Z,39.90
2023-05-09T08:56:58.799Z,40.40
2023-05-09T08:59:27.512Z,40.90
2023-05-09T09:01:55.905Z,39.80
2023-05-09T09:04:24.022Z,39.20
2023-05-09T09:06:54.293Z,39.80
2023-05-09T09:09:23.223Z,39.20
2023-05-09T09:11:53.624Z,39.00
2023-05-09T09:14:27.947Z,38.80
2023-05-09T09:16:57.595Z,39.10
2023-05-09T09:19:30.967Z,39.30
2023-05-09T09:22:02.344Z,39.00
2023-05-09T09:24:31.160Z,38.20
2023-05-09T09:27:06.809Z,38.50
2023-05-09T09:29:35.268Z,38.30
2023-05-09T09:32:05.778Z,38.50
2023-05-09T09:34:34.796Z,38.50
2023-05-09T09:37:03.096Z,38.60
2023-05-09T09:39:31.221Z,38.40
2023-05-09T09:42:11.310Z,38.20
2023-05-09T09:44:39.517Z,38.20
2023-05-09T09:47:10.857Z,38.10
2023-05-09T09:49:46.225Z,38.10
2023-05-09T09:52:25.184Z,38.50
2023-05-09T09:54:57.067Z,37.30
2023-05-09T09:57:37.355Z,37.70
2023-05-09T10:00:06.812Z,37.50
2023-05-09T10:02:35.144Z,37.00
2023-05-09T10:05:09.413Z,37.20
2023-05-09T10:07:37.957Z,37.30
2023-05-09T10:10:06.569Z,37.60
2023-05-09T10:12:37.148Z,37.00
2023-05-09T10:15:07.688Z,37.00
2023-05-09T10:17:36.721Z,36.80
2023-05-09T10:20:06.624Z,36.60
2023-05-09T10:22:36.812Z,36.80
2023-05-09T10:25:11.021Z,36.60
2023-05-09T10:27:45.728Z,36.40
2023-05-09T10:30:24.168Z,36.50
2023-05-09T10:32:58.256Z,36.50
2023-05-09T10:35:30.586Z,36.50
2023-05-09T10:38:00.202Z,36.60
2023-05-09T10:40:29.604Z,36.70
2023-05-09T10:42:58.700Z,37.00
2023-05-09T10:45:27.244Z,36.80
2023-05-09T10:47:57.332Z,36.30
2023-05-09T10:50:26.293Z,36.70
2023-05-09T10:53:15.563Z,36.70
2023-05-09T10:55:59.294Z,36.80
2023-05-09T10:58:29.072Z,36.80
2023-05-09T11:00:58.817Z,36.10
2023-05-09T11:03:30.366Z,36.30
2023-05-09T11:05:59.214Z,36.60
2023-05-09T11:08:29.925Z,36.80
2023-05-09T11:11:01.001Z,37.10
2023-05-09T11:13:36.663Z,36.80
2023-05-09T11:16:05.625Z,37.10
2023-05-09T11:18:34.276Z,37.10
2023-05-09T11:21:10.012Z,37.10
2023-05-09T11:23:39.703Z,36.90
2023-05-09T11:26:09.253Z,36.90
2023-05-09T11:28:38.928Z,37.00
2023-05-09T11:31:10.802Z,36.70
2023-05-09T11:33:40.611Z,36.60
2023-05-09T11:36:20.409Z,37.20
2023-05-09T11:38:49.457Z,36.90
2023-05-09T11:41:17.817Z,37.50
2023-05-09T11:43:46.280Z,37.30
2023-05-09T11:46:15.761Z,37.40
2023-05-09T11:48:43.817Z,37.50
2023-05-09T11:51:19.427Z,37.40
2023-05-09T11:53:54.363Z,36.90
2023-05-09T11:56:23.507Z,37.10
2023-05-09T11:58:52.554Z,37.40
2023-05-09T12:01:21.064Z,37.50
2023-05-09T12:03:51.202Z,37.10
2023-05-09T12:06:20.124Z,37.10
2023-05-09T12:08:48.615Z,37.50
2023-05-09T12:11:16.538Z,38.00
2023-05-09T12:13:52.718Z,37.90
2023-05-09T12:16:21.564Z,37.50
2023-05-09T12:18:51.952Z,37.40
2023-05-09T12:21:20.969Z,36.90
2023-05-09T12:23:51.300Z,37.10
2023-05-09T12:26:23.046Z,37.50
2023-05-09T12:28:52.326Z,37.50
2023-05-09T12:31:21.578Z,37.60
2023-05-09T12:33:49.908Z,37.80
2023-05-09T12:36:19.111Z,37.70
2023-05-09T12:38:56.951Z,37.70
2023-05-09T12:43:56.411Z,38.30
2023-05-09T12:46:24.533Z,38.40
2023-05-09T12:48:53.186Z,38.70
2023-05-09T12:51:22.896Z,38.70
2023-05-09T12:53:53.516Z,38.70
2023-05-09T12:56:24.595Z,38.60
2023-05-09T12:58:56.430Z,39.10
2023-05-09T13:01:28.778Z,39.10
2023-05-09T13:04:05.467Z,38.80
2023-05-09T13:06:34.085Z,38.70
2023-05-09T13:09:09.241Z,38.70
2023-05-09T13:11:38.246Z,38.90
2023-05-09T13:14:06.694Z,38.90
2023-05-09T13:16:37.393Z,39.10
2023-05-09T13:19:05.802Z,39.20
2023-05-09T13:21:34.365Z,39.20
2023-05-09T13:24:03.310Z,39.10
2023-05-09T13:26:31.596Z,39.20
2023-05-09T13:29:01.201Z,39.20
2023-05-09T13:31:29.161Z,39.50
2023-05-09T13:33:57.484Z,39.80
2023-05-09T13:36:25.594Z,39.80
2023-05-09T13:38:54.248Z,40.00
2023-05-09T13:41:23.981Z,39.80
2023-05-09T13:43:52.342Z,40.00
2023-05-09T13:46:20.287Z,40.00
2023-05-09T13:48:48.961Z,40.10
2023-05-09T13:51:16.927Z,40.20
2023-05-09T13:53:47.672Z,40.30
2023-05-09T13:56:15.516Z,40.60
2023-05-09T13:58:44.143Z,40.70
2023-05-09T14:01:12.240Z,40.80
2023-05-09T14:03:40.593Z,40.80
2023-05-09T14:06:09.855Z,40.70
2023-05-09T14:08:38.031Z,40.70
2023-05-09T14:11:06.146Z,40.90
2023-05-09T14:13:34.587Z,41.10
2023-05-09T14:16:02.711Z,41.30
2023-05-09T14:18:32.115Z,41.50
2023-05-09T14:20:59.969Z,41.80
2023-05-09T14:23:28.300Z,42.00
2023-05-09T14:25:57.714Z,42.20
2023-05-09T14:28:26.195Z,42.30
2023-05-09T14:30:53.983Z,42.20
2023-05-09T14:33:22.537Z,42.30
2023-05-09T14:35:50.945Z,42.50
2023-05-09T14:38:19.352Z,42.30
2023-05-09T14:40:47.172Z,42.50
2023-05-09T14:43:16.845Z,42.50
2023-05-09T14:45:44.672Z,42.70
2023-05-09T14:48:15.874Z,42.80
2023-05-09T14:50:43.869Z,42.80
2023-05-09T14:53:13.071Z,42.90
2023-05-09T14:55:41.517Z,42.90
2023-05-09T14:58:10.149Z,43.00
2023-05-09T15:00:37.982Z,42.90
2023-05-09T15:03:06.293Z,43.00
2023-05-09T15:05:34.511Z,42.90
2023-05-09T15:08:02.970Z,42.80
2023-05-09T15:10:32.280Z,42.80
2023-05-09T15:13:01.020Z,42.90
2023-05-09T15:15:31.420Z,42.70
2023-05-09T15:17:59.384Z,42.80
2023-05-09T15:20:27.954Z,42.70
2023-05-09T15:22:55.883Z,42.60
2023-05-09T15:25:25.561Z,43.00
2023-05-09T15:27:53.562Z,42.90
2023-05-09T15:30:22.625Z,42.70
2023-05-09T15:32:50.418Z,42.70
2023-05-09T15:35:19.037Z,42.70
2023-05-09T15:37:46.882Z,42.60
2023-05-09T15:40:15.376Z,42.70
2023-05-09T15:42:43.733Z,42.40
2023-05-09T15:45:12.162Z,42.40
2023-05-09T15:47:40.241Z,42.50
2023-05-09T15:50:09.114Z,42.50
2023-05-09T15:52:37.197Z,42.50
2023-05-09T15:55:05.893Z,42.50
2023-05-09T15:57:33.786Z,42.60
2023-05-09T16:00:02.276Z,42.70
2023-05-09T16:02:41.142Z,42.70
2023-05-09T16:05:09.893Z,42.80
2023-05-09T16:07:37.759Z,42.90
2023-05-09T16:10:06.750Z,42.70
2023-05-09T16:12:34.595Z,42.80
2023-05-09T16:15:02.806Z,42.80
2023-05-09T16:17:33.221Z,42.80
2023-05-09T16:20:02.419Z,42.90
2023-05-09T16:22:30.292Z,43.00
2023-05-09T16:24:58.661Z,43.00
2023-05-09T16:27:26.823Z,43.10
2023-05-09T16:29:56.201Z,43.20
2023-05-09T16:32:24.644Z,43.20
2023-05-09T16:34:52.982Z,43.30
2023-05-09T16:37:24.945Z,43.40
2023-05-09T16:39:53.726Z,43.50
2023-05-09T16:42:31.550Z,43.50
2023-05-09T16:45:00.463Z,43.70
2023-05-09T16:47:28.413Z,43.80
2023-05-09T16:49:56.691Z,43.90
2023-05-09T16:52:25.649Z,43.90
2023-05-09T16:54:55.154Z,44.00
2023-05-09T16:57:23.323Z,44.20
2023-05-09T16:59:52.077Z,44.30
2023-05-09T17:02:22.190Z,44.40
2023-05-09T17:04:50.524Z,44.50
2023-05-09T17:07:18.386Z,44.60
2023-05-09T17:09:48.893Z,44.60
2023-05-09T17:12:18.612Z,44.60
2023-05-09T17:14:50.553Z,44.60
2023-05-09T17:17:18.376Z,44.60
2023-05-09T17:19:47.020Z,44.70
2023-05-09T17:22:16.387Z,44.60
2023-05-09T17:24:45.093Z,44.70
2023-05-09T17:27:12.897Z,44.90
2023-05-09T17:29:43.733Z,45.10
2023-05-09T17:32:11.727Z,45.10
2023-05-09T17:34:41.352Z,45.30
2023-05-09T17:37:09.769Z,45.20
2023-05-09T17:39:38.643Z,45.20
2023-05-09T17:42:07.330Z,45.30
2023-05-09T17:44:35.535Z,45.40
2023-05-09T17:47:04.651Z,45.40
2023-05-09T17:49:32.904Z,45.40
2023-05-09T17:52:00.697Z,45.40
2023-05-09T17:54:30.166Z,45.50
2023-05-09T17:57:01.859Z,45.50
2023-05-09T17:59:30.960Z,45.60
2023-05-09T18:01:58.949Z,45.60
2023-05-09T18:04:30.682Z,45.70
2023-05-09T18:06:58.483Z,45.80
2023-05-09T18:09:27.271Z,46.10
2023-05-09T18:11:55.257Z,46.00
2023-05-09T18:14:23.676Z,46.00
2023-05-09T18:16:52.123Z,46.10
2023-05-09T18:19:20.688Z,46.20
2023-05-09T18:21:48.654Z,46.20
2023-05-09T18:24:22.525Z,46.60
2023-05-09T18:26:50.385Z,46.50
2023-05-09T18:29:18.583Z,46.70
2023-05-09T18:31:46.438Z,46.70
2023-05-09T18:34:14.774Z,46.70
2023-05-09T18:36:42.742Z,46.90
2023-05-09T18:39:12.320Z,47.00
2023-05-09T18:41:40.249Z,47.10
2023-05-09T18:44:09.066Z,47.20
2023-05-09T18:46:38.134Z,47.60
2023-05-09T18:49:06.625Z,47.90
2023-05-09T18:51:36.252Z,47.90
2023-05-09T18:54:04.605Z,47.80
2023-05-09T18:56:39.905Z,47.80
2023-05-09T18:59:28.806Z,47.80
2023-05-09T19:01:57.205Z,47.80
2023-05-09T19:04:26.416Z,48.00
2023-05-09T19:06:55.842Z,47.90
2023-05-09T19:09:24.556Z,48.00
2023-05-09T19:11:55.120Z,48.20
2023-05-09T19:14:25.028Z,48.30
2023-05-09T19:16:55.382Z,48.30
2023-05-09T19:19:25.663Z,48.40
2023-05-09T19:21:56.439Z,48.50
2023-05-09T19:24:25.586Z,48.50
2023-05-09T19:26:55.961Z,48.50
2023-05-09T19:29:24.479Z,48.60
2023-05-09T19:31:53.229Z,48.70
2023-05-09T19:34:24.096Z,48.80
2023-05-09T19:36:54.760Z,49.40
2023-05-09T19:39:24.594Z,49.10
2023-05-09T19:41:53.506Z,49.20
2023-05-09T19:44:25.767Z,49.30
2023-05-09T19:46:56.116Z,49.50
2023-05-09T19:49:28.717Z,49.40
2023-05-09T19:51:59.595Z,49.50
2023-05-09T19:54:34.599Z,49.50
2023-05-09T19:57:06.652Z,49.80
2023-05-09T19:59:35.445Z,49.90
2023-05-09T20:02:05.147Z,50.00
2023-05-09T20:04:37.045Z,49.70
2023-05-09T20:07:06.382Z,49.80
2023-05-09T20:09:36.915Z,49.90
2023-05-09T20:12:06.454Z,50.00
2023-05-09T20:14:36.605Z,50.00
2023-05-09T20:17:06.293Z,50.00
2023-05-09T20:19:35.494Z,50.10
2023-05-09T20:22:05.229Z,50.20
2023-05-09T20:24:36.291Z,50.30
2023-05-09T20:27:07.263Z,50.40
2023-05-09T20:29:36.439Z,50.50
2023-05-09T20:32:05.346Z,50.80
2023-05-09T20:34:36.174Z,51.00
2023-05-09T20:37:07.098Z,51.10
2023-05-09T20:39:38.121Z,51.20
2023-05-09T20:42:07.723Z,51.10
2023-05-09T20:44:40.224Z,51.30
2023-05-09T20:47:09.529Z,51.50
2023-05-09T20:49:39.576Z,51.70
2023-05-09T20:52:08.125Z,52.10
2023-05-09T20:54:36.775Z,52.30
2023-05-09T20:57:04.829Z,52.40
2023-05-09T20:59:34.270Z,52.50
2023-05-09T21:02:03.083Z,52.60
2023-05-09T21:04:31.408Z,52.90
2023-05-09T21:06:59.699Z,53.00
2023-05-09T21:09:27.834Z,53.60
2023-05-09T21:11:55.724Z,53.60
2023-05-09T21:14:24.237Z,53.80
2023-05-09T21:16:55.295Z,54.00
2023-05-09T21:19:24.103Z,54.10
2023-05-09T21:21:51.846Z,54.00
2023-05-09T21:24:20.031Z,54.20
2023-05-09T21:26:47.792Z,54.30
2023-05-09T21:29:15.977Z,54.30
2023-05-09T21:31:43.961Z,54.60
2023-05-09T21:34:12.166Z,54.50
2023-05-09T21:36:40.893Z,54.60
2023-05-09T21:39:09.928Z,54.60
2023-05-09T21:41:40.333Z,54.50
2023-05-09T21:44:09.054Z,54.60
2023-05-09T21:46:37.038Z,54.70
2023-05-09T21:49:07.677Z,55.10
2023-05-09T21:51:35.900Z,55.20
2023-05-09T21:54:04.207Z,55.20
2023-05-09T21:56:32.972Z,55.40
2023-05-09T21:59:01.328Z,55.50
2023-05-09T22:01:29.347Z,55.60
2023-05-09T22:03:58.485Z,55.70
2023-05-09T22:06:26.718Z,55.80
2023-05-09T22:08:55.149Z,56.00
2023-05-09T22:11:27.723Z,55.90
2023-05-09T22:13:56.152Z,56.10
2023-05-09T22:16:24.243Z,56.10
2023-05-09T22:18:54.083Z,56.00
2023-05-09T22:21:22.093Z,56.60
2023-05-09T22:23:50.567Z,56.30
2023-05-09T22:26:18.533Z,56.20
2023-05-09T22:28:47.001Z,56.20
2023-05-09T22:31:15.075Z,56.60
2023-05-09T22:33:44.405Z,56.50
2023-05-09T22:36:12.452Z,56.90
2023-05-09T22:38:42.018Z,57.20
2023-05-09T22:41:10.128Z,57.70
2023-05-09T22:43:39.776Z,57.10
2023-05-09T22:46:08.213Z,57.70
2023-05-09T22:48:39.374Z,57.70
2023-05-09T22:51:07.503Z,57.70
2023-05-09T22:53:36.146Z,57.60
2023-05-09T22:56:04.727Z,58.10
2023-05-09T22:58:33.564Z,58.00
2023-05-09T23:01:01.739Z,58.30
2023-05-09T23:03:30.228Z,57.90
2023-05-09T23:05:58.470Z,57.70
2023-05-09T23:08:27.578Z,57.70
2023-05-09T23:10:56.007Z,58.10
2023-05-09T23:13:24.504Z,58.70
2023-05-09T23:15:52.758Z,58.10
2023-05-09T23:18:21.527Z,58.20
2023-05-09T23:20:49.588Z,58.30
2023-05-09T23:23:18.201Z,58.20
2023-05-09T23:25:46.434Z,58.80
2023-05-09T23:28:14.849Z,58.50
2023-05-09T23:30:42.632Z,58.90
2023-05-09T23:33:11.059Z,58.60
2023-05-09T23:35:39.043Z,58.60
2023-05-09T23:38:07.570Z,58.70
2023-05-09T23:40:36.001Z,58.80
2023-05-09T23:43:04.178Z,58.60
2023-05-09T23:45:32.419Z,58.60
2023-05-09T23:48:00.929Z,59.40
2023-05-09T23:50:28.932Z,59.00
2023-05-09T23:52:57.562Z,58.80
2023-05-09T23:55:25.603Z,58.70
2023-05-09T23:57:54.613Z,58.60
